sensor_id;sensor_type;location;lat;lon;timestamp;P1;durP1;ratioP1;P2;durP2;ratioP2
6463;SDS011;3265;42.694;23.282;2022-07-29T00:01:07;15.40;;;11.00;;
6463;SDS011;3265;42.694;23.282;2022-07-29T00:03:34;12.15;;;10.02;;
6463;SDS011;3265;42.694;23.282;2022-07-29T00:06:02;14.20;;;10.23;;
6463;SDS011;3265;42.694;23.282;2022-07-29T00:08:29;13.55;;;10.27;;
6463;SDS011;3265;42.694;23.282;2022-07-29T00:10:56;13.48;;;11.23;;
6463;SDS011;3265;42.694;23.282;2022-07-29T00:13:23;13.13;;;10.95;;
6463;SDS011;3265;42.694;23.282;2022-07-29T00:15:49;13.77;;;10.68;;
6463;SDS011;3265;42.694;23.282;2022-07-29T00:18:16;12.40;;;10.77;;
6463;SDS011;3265;42.694;23.282;2022-07-29T00:20:43;13.07;;;10.85;;
6463;SDS011;3265;42.694;23.282;2022-07-29T00:23:11;13.52;;;11.38;;
6463;SDS011;3265;42.694;23.282;2022-07-29T00:25:38;15.38;;;11.23;;
6463;SDS011;3265;42.694;23.282;2022-07-29T00:28:05;14.38;;;11.20;;
6463;SDS011;3265;42.694;23.282;2022-07-29T00:30:32;16.70;;;10.45;;
6463;SDS011;3265;42.694;23.282;2022-07-29T00:32:58;14.75;;;11.15;;
6463;SDS011;3265;42.694;23.282;2022-07-29T00:35:25;14.55;;;11.75;;
6463;SDS011;3265;42.694;23.282;2022-07-29T00:38:09;15.55;;;11.05;;
6463;SDS011;3265;42.694;23.282;2022-07-29T00:40:38;14.23;;;11.30;;
6463;SDS011;3265;42.694;23.282;2022-07-29T00:43:05;14.88;;;11.98;;
6463;SDS011;3265;42.694;23.282;2022-07-29T00:45:32;18.40;;;12.20;;
6463;SDS011;3265;42.694;23.282;2022-07-29T00:47:59;15.40;;;12.10;;
6463;SDS011;3265;42.694;23.282;2022-07-29T00:50:26;16.23;;;11.90;;
6463;SDS011;3265;42.694;23.282;2022-07-29T00:52:53;16.08;;;12.05;;
6463;SDS011;3265;42.694;23.282;2022-07-29T00:55:21;16.85;;;12.57;;
6463;SDS011;3265;42.694;23.282;2022-07-29T00:57:48;14.60;;;11.40;;
6463;SDS011;3265;42.694;23.282;2022-07-29T01:00:19;14.25;;;11.93;;
6463;SDS011;3265;42.694;23.282;2022-07-29T01:03:04;14.98;;;12.38;;
6463;SDS011;3265;42.694;23.282;2022-07-29T01:06:17;18.25;;;12.10;;
6463;SDS011;3265;42.694;23.282;2022-07-29T01:08:45;16.30;;;12.43;;
6463;SDS011;3265;42.694;23.282;2022-07-29T01:11:15;13.93;;;11.73;;
6463;SDS011;3265;42.694;23.282;2022-07-29T01:13:44;16.92;;;12.77;;
6463;SDS011;3265;42.694;23.282;2022-07-29T01:16:13;17.75;;;12.05;;
6463;SDS011;3265;42.694;23.282;2022-07-29T01:18:47;17.70;;;12.52;;
6463;SDS011;3265;42.694;23.282;2022-07-29T01:21:35;15.20;;;12.38;;
6463;SDS011;3265;42.694;23.282;2022-07-29T01:24:25;17.50;;;12.63;;
6463;SDS011;3265;42.694;23.282;2022-07-29T01:27:04;19.10;;;12.32;;
6463;SDS011;3265;42.694;23.282;2022-07-29T01:29:51;17.15;;;12.05;;
6463;SDS011;3265;42.694;23.282;2022-07-29T01:32:21;16.98;;;11.98;;
6463;SDS011;3265;42.694;23.282;2022-07-29T01:34:53;15.68;;;12.80;;
6463;SDS011;3265;42.694;23.282;2022-07-29T01:37:25;17.30;;;13.52;;
6463;SDS011;3265;42.694;23.282;2022-07-29T01:39:55;14.93;;;12.50;;
6463;SDS011;3265;42.694;23.282;2022-07-29T01:42:26;18.63;;;12.50;;
6463;SDS011;3265;42.694;23.282;2022-07-29T01:44:59;17.85;;;12.27;;
6463;SDS011;3265;42.694;23.282;2022-07-29T01:47:31;15.18;;;11.85;;
6463;SDS011;3265;42.694;23.282;2022-07-29T01:50:04;17.88;;;12.40;;
6463;SDS011;3265;42.694;23.282;2022-07-29T01:52:36;22.48;;;12.75;;
6463;SDS011;3265;42.694;23.282;2022-07-29T01:55:09;20.65;;;12.70;;
6463;SDS011;3265;42.694;23.282;2022-07-29T01:57:40;18.27;;;12.27;;
6463;SDS011;3265;42.694;23.282;2022-07-29T02:00:14;15.93;;;12.45;;
6463;SDS011;3265;42.694;23.282;2022-07-29T02:02:43;22.45;;;12.80;;
6463;SDS011;3265;42.694;23.282;2022-07-29T02:05:13;14.55;;;11.43;;
6463;SDS011;3265;42.694;23.282;2022-07-29T02:07:42;15.82;;;12.40;;
6463;SDS011;3265;42.694;23.282;2022-07-29T02:10:10;18.85;;;12.65;;
6463;SDS011;3265;42.694;23.282;2022-07-29T02:12:39;17.40;;;12.40;;
6463;SDS011;3265;42.694;23.282;2022-07-29T02:15:08;17.92;;;12.43;;
6463;SDS011;3265;42.694;23.282;2022-07-29T02:17:41;20.23;;;12.48;;
6463;SDS011;3265;42.694;23.282;2022-07-29T02:20:10;15.63;;;11.57;;
6463;SDS011;3265;42.694;23.282;2022-07-29T02:22:38;21.65;;;13.25;;
6463;SDS011;3265;42.694;23.282;2022-07-29T02:25:07;16.30;;;12.48;;
6463;SDS011;3265;42.694;23.282;2022-07-29T02:27:35;19.70;;;12.77;;
6463;SDS011;3265;42.694;23.282;2022-07-29T02:30:06;18.50;;;12.25;;
6463;SDS011;3265;42.694;23.282;2022-07-29T02:32:35;14.77;;;12.20;;
6463;SDS011;3265;42.694;23.282;2022-07-29T02:35:06;14.07;;;11.75;;
6463;SDS011;3265;42.694;23.282;2022-07-29T02:37:34;18.58;;;12.02;;
6463;SDS011;3265;42.694;23.282;2022-07-29T02:40:02;18.15;;;12.13;;
6463;SDS011;3265;42.694;23.282;2022-07-29T02:42:32;14.95;;;11.60;;
6463;SDS011;3265;42.694;23.282;2022-07-29T02:45:01;18.45;;;12.20;;
6463;SDS011;3265;42.694;23.282;2022-07-29T02:47:31;18.42;;;12.25;;
6463;SDS011;3265;42.694;23.282;2022-07-29T02:50:04;16.63;;;11.40;;
6463;SDS011;3265;42.694;23.282;2022-07-29T02:52:37;17.45;;;12.68;;
6463;SDS011;3265;42.694;23.282;2022-07-29T02:55:11;19.70;;;12.43;;
6463;SDS011;3265;42.694;23.282;2022-07-29T02:57:43;15.60;;;11.98;;
6463;SDS011;3265;42.694;23.282;2022-07-29T03:00:14;15.27;;;12.10;;
6463;SDS011;3265;42.694;23.282;2022-07-29T03:02:43;20.52;;;12.52;;
6463;SDS011;3265;42.694;23.282;2022-07-29T03:05:15;19.77;;;13.10;;
6463;SDS011;3265;42.694;23.282;2022-07-29T03:07:45;21.92;;;13.60;;
6463;SDS011;3265;42.694;23.282;2022-07-29T03:10:13;19.42;;;13.35;;
6463;SDS011;3265;42.694;23.282;2022-07-29T03:12:41;17.33;;;13.10;;
6463;SDS011;3265;42.694;23.282;2022-07-29T03:15:09;18.40;;;14.00;;
6463;SDS011;3265;42.694;23.282;2022-07-29T03:17:36;21.90;;;14.02;;
6463;SDS011;3265;42.694;23.282;2022-07-29T03:20:06;18.05;;;14.20;;
6463;SDS011;3265;42.694;23.282;2022-07-29T03:22:39;18.88;;;15.75;;
6463;SDS011;3265;42.694;23.282;2022-07-29T03:25:09;24.45;;;15.20;;
6463;SDS011;3265;42.694;23.282;2022-07-29T03:27:36;21.40;;;15.70;;
6463;SDS011;3265;42.694;23.282;2022-07-29T03:30:03;22.92;;;17.02;;
6463;SDS011;3265;42.694;23.282;2022-07-29T03:32:31;21.70;;;16.00;;
6463;SDS011;3265;42.694;23.282;2022-07-29T03:34:57;25.00;;;16.52;;
6463;SDS011;3265;42.694;23.282;2022-07-29T03:37:24;24.38;;;16.05;;
6463;SDS011;3265;42.694;23.282;2022-07-29T03:39:53;25.77;;;16.02;;
6463;SDS011;3265;42.694;23.282;2022-07-29T03:42:23;25.85;;;16.65;;
6463;SDS011;3265;42.694;23.282;2022-07-29T03:44:52;23.58;;;15.07;;
6463;SDS011;3265;42.694;23.282;2022-07-29T03:47:21;23.98;;;15.50;;
6463;SDS011;3265;42.694;23.282;2022-07-29T03:49:52;20.45;;;14.38;;
6463;SDS011;3265;42.694;23.282;2022-07-29T03:52:22;17.77;;;13.57;;
6463;SDS011;3265;42.694;23.282;2022-07-29T03:54:49;20.20;;;14.20;;
6463;SDS011;3265;42.694;23.282;2022-07-29T03:57:17;21.58;;;13.90;;
6463;SDS011;3265;42.694;23.282;2022-07-29T03:59:46;21.70;;;14.18;;
6463;SDS011;3265;42.694;23.282;2022-07-29T04:02:14;21.48;;;14.30;;
6463;SDS011;3265;42.694;23.282;2022-07-29T04:04:41;23.17;;;14.48;;
6463;SDS011;3265;42.694;23.282;2022-07-29T04:07:09;24.92;;;15.10;;
6463;SDS011;3265;42.694;23.282;2022-07-29T04:09:38;28.50;;;16.23;;
6463;SDS011;3265;42.694;23.282;2022-07-29T04:12:05;22.17;;;15.65;;
6463;SDS011;3265;42.694;23.282;2022-07-29T04:14:33;22.85;;;16.58;;
6463;SDS011;3265;42.694;23.282;2022-07-29T04:17:02;21.35;;;16.10;;
6463;SDS011;3265;42.694;23.282;2022-07-29T04:19:30;24.65;;;16.55;;
6463;SDS011;3265;42.694;23.282;2022-07-29T04:21:58;24.75;;;17.33;;
6463;SDS011;3265;42.694;23.282;2022-07-29T04:24:25;23.73;;;17.20;;
6463;SDS011;3265;42.694;23.282;2022-07-29T04:26:52;23.45;;;16.88;;
6463;SDS011;3265;42.694;23.282;2022-07-29T04:29:19;22.98;;;17.08;;
6463;SDS011;3265;42.694;23.282;2022-07-29T04:31:47;24.42;;;17.70;;
6463;SDS011;3265;42.694;23.282;2022-07-29T04:34:14;27.85;;;17.60;;
6463;SDS011;3265;42.694;23.282;2022-07-29T04:36:41;28.70;;;17.33;;
6463;SDS011;3265;42.694;23.282;2022-07-29T04:39:08;26.00;;;17.92;;
6463;SDS011;3265;42.694;23.282;2022-07-29T04:41:35;29.80;;;17.48;;
6463;SDS011;3265;42.694;23.282;2022-07-29T04:44:02;23.50;;;17.33;;
6463;SDS011;3265;42.694;23.282;2022-07-29T04:46:32;22.52;;;16.55;;
6463;SDS011;3265;42.694;23.282;2022-07-29T04:49:01;25.40;;;16.55;;
6463;SDS011;3265;42.694;23.282;2022-07-29T04:51:29;23.38;;;16.30;;
6463;SDS011;3265;42.694;23.282;2022-07-29T04:53:56;23.90;;;16.33;;
6463;SDS011;3265;42.694;23.282;2022-07-29T04:56:23;24.13;;;16.98;;
6463;SDS011;3265;42.694;23.282;2022-07-29T04:58:49;28.90;;;21.08;;
6463;SDS011;3265;42.694;23.282;2022-07-29T05:01:16;33.53;;;20.80;;
6463;SDS011;3265;42.694;23.282;2022-07-29T05:03:44;25.27;;;20.83;;
6463;SDS011;3265;42.694;23.282;2022-07-29T05:06:12;27.85;;;21.17;;
6463;SDS011;3265;42.694;23.282;2022-07-29T05:08:39;30.38;;;20.27;;
6463;SDS011;3265;42.694;23.282;2022-07-29T05:11:06;29.42;;;18.60;;
6463;SDS011;3265;42.694;23.282;2022-07-29T05:13:33;24.15;;;19.08;;
6463;SDS011;3265;42.694;23.282;2022-07-29T05:16:00;25.77;;;18.25;;
6463;SDS011;3265;42.694;23.282;2022-07-29T05:18:26;26.20;;;18.58;;
6463;SDS011;3265;42.694;23.282;2022-07-29T05:20:53;21.67;;;18.17;;
6463;SDS011;3265;42.694;23.282;2022-07-29T05:23:21;26.10;;;18.75;;
6463;SDS011;3265;42.694;23.282;2022-07-29T05:25:49;31.08;;;17.45;;
6463;SDS011;3265;42.694;23.282;2022-07-29T05:28:16;32.40;;;18.33;;
6463;SDS011;3265;42.694;23.282;2022-07-29T05:30:43;24.98;;;18.55;;
6463;SDS011;3265;42.694;23.282;2022-07-29T05:33:10;21.45;;;16.95;;
6463;SDS011;3265;42.694;23.282;2022-07-29T05:35:37;30.38;;;18.38;;
6463;SDS011;3265;42.694;23.282;2022-07-29T05:38:04;26.65;;;17.45;;
6463;SDS011;3265;42.694;23.282;2022-07-29T05:40:34;25.73;;;18.45;;
6463;SDS011;3265;42.694;23.282;2022-07-29T05:43:01;27.25;;;18.25;;
6463;SDS011;3265;42.694;23.282;2022-07-29T05:45:28;27.17;;;17.35;;
6463;SDS011;3265;42.694;23.282;2022-07-29T05:47:55;23.95;;;17.42;;
6463;SDS011;3265;42.694;23.282;2022-07-29T05:50:22;27.42;;;18.08;;
6463;SDS011;3265;42.694;23.282;2022-07-29T05:52:49;29.92;;;18.80;;
6463;SDS011;3265;42.694;23.282;2022-07-29T05:55:23;27.75;;;17.65;;
6463;SDS011;3265;42.694;23.282;2022-07-29T05:58:12;25.88;;;16.98;;
6463;SDS011;3265;42.694;23.282;2022-07-29T06:00:39;24.40;;;16.80;;
6463;SDS011;3265;42.694;23.282;2022-07-29T06:03:06;23.33;;;15.95;;
6463;SDS011;3265;42.694;23.282;2022-07-29T06:05:33;21.63;;;16.38;;
6463;SDS011;3265;42.694;23.282;2022-07-29T06:08:00;24.20;;;16.05;;
6463;SDS011;3265;42.694;23.282;2022-07-29T06:10:27;23.58;;;15.10;;
6463;SDS011;3265;42.694;23.282;2022-07-29T06:12:54;20.27;;;14.48;;
6463;SDS011;3265;42.694;23.282;2022-07-29T06:15:22;24.42;;;14.13;;
6463;SDS011;3265;42.694;23.282;2022-07-29T06:17:49;20.65;;;12.88;;
6463;SDS011;3265;42.694;23.282;2022-07-29T06:20:16;15.23;;;11.77;;
6463;SDS011;3265;42.694;23.282;2022-07-29T06:22:43;13.85;;;10.02;;
6463;SDS011;3265;42.694;23.282;2022-07-29T06:25:10;16.00;;;8.43;;
6463;SDS011;3265;42.694;23.282;2022-07-29T06:27:37;11.23;;;8.43;;
6463;SDS011;3265;42.694;23.282;2022-07-29T06:30:04;12.68;;;8.10;;
6463;SDS011;3265;42.694;23.282;2022-07-29T06:32:34;14.32;;;8.02;;
6463;SDS011;3265;42.694;23.282;2022-07-29T06:35:02;14.25;;;8.18;;
6463;SDS011;3265;42.694;23.282;2022-07-29T06:37:29;11.13;;;8.20;;
6463;SDS011;3265;42.694;23.282;2022-07-29T06:39:56;13.88;;;7.72;;
6463;SDS011;3265;42.694;23.282;2022-07-29T06:42:37;14.60;;;7.78;;
6463;SDS011;3265;42.694;23.282;2022-07-29T06:45:04;10.82;;;7.38;;
6463;SDS011;3265;42.694;23.282;2022-07-29T06:47:31;9.88;;;7.40;;
6463;SDS011;3265;42.694;23.282;2022-07-29T06:49:59;13.23;;;7.28;;
6463;SDS011;3265;42.694;23.282;2022-07-29T06:52:26;13.00;;;7.20;;
6463;SDS011;3265;42.694;23.282;2022-07-29T06:54:53;8.80;;;7.40;;
6463;SDS011;3265;42.694;23.282;2022-07-29T06:57:20;13.25;;;7.13;;
6463;SDS011;3265;42.694;23.282;2022-07-29T06:59:46;9.73;;;7.20;;
6463;SDS011;3265;42.694;23.282;2022-07-29T07:02:13;11.20;;;6.63;;
6463;SDS011;3265;42.694;23.282;2022-07-29T07:04:40;11.35;;;6.72;;
6463;SDS011;3265;42.694;23.282;2022-07-29T07:07:08;10.13;;;6.78;;
6463;SDS011;3265;42.694;23.282;2022-07-29T07:09:35;8.57;;;7.10;;
6463;SDS011;3265;42.694;23.282;2022-07-29T07:12:02;8.18;;;6.93;;
6463;SDS011;3265;42.694;23.282;2022-07-29T07:14:29;7.18;;;6.30;;
6463;SDS011;3265;42.694;23.282;2022-07-29T07:16:56;11.63;;;8.32;;
6463;SDS011;3265;42.694;23.282;2022-07-29T07:19:25;13.38;;;9.50;;
6463;SDS011;3265;42.694;23.282;2022-07-29T07:21:52;11.40;;;7.30;;
6463;SDS011;3265;42.694;23.282;2022-07-29T07:24:21;10.30;;;7.13;;
6463;SDS011;3265;42.694;23.282;2022-07-29T07:26:48;9.10;;;6.60;;
6463;SDS011;3265;42.694;23.282;2022-07-29T07:29:14;10.38;;;6.40;;
6463;SDS011;3265;42.694;23.282;2022-07-29T07:31:41;8.88;;;6.03;;
6463;SDS011;3265;42.694;23.282;2022-07-29T07:34:08;14.65;;;6.80;;
6463;SDS011;3265;42.694;23.282;2022-07-29T07:36:35;8.25;;;5.43;;
6463;SDS011;3265;42.694;23.282;2022-07-29T07:39:02;9.30;;;6.50;;
6463;SDS011;3265;42.694;23.282;2022-07-29T07:41:31;9.95;;;6.60;;
6463;SDS011;3265;42.694;23.282;2022-07-29T07:43:58;9.95;;;6.72;;
6463;SDS011;3265;42.694;23.282;2022-07-29T07:46:26;6.30;;;5.20;;
6463;SDS011;3265;42.694;23.282;2022-07-29T07:48:52;13.50;;;6.15;;
6463;SDS011;3265;42.694;23.282;2022-07-29T07:51:19;7.78;;;6.22;;
6463;SDS011;3265;42.694;23.282;2022-07-29T07:53:46;7.55;;;5.88;;
6463;SDS011;3265;42.694;23.282;2022-07-29T07:56:14;8.80;;;5.85;;
6463;SDS011;3265;42.694;23.282;2022-07-29T07:58:43;10.68;;;5.78;;
6463;SDS011;3265;42.694;23.282;2022-07-29T08:01:10;7.88;;;5.60;;
6463;SDS011;3265;42.694;23.282;2022-07-29T08:03:37;8.93;;;5.97;;
6463;SDS011;3265;42.694;23.282;2022-07-29T08:06:04;5.57;;;5.07;;
6463;SDS011;3265;42.694;23.282;2022-07-29T08:08:32;6.78;;;5.50;;
6463;SDS011;3265;42.694;23.282;2022-07-29T08:10:59;7.88;;;5.88;;
6463;SDS011;3265;42.694;23.282;2022-07-29T08:13:27;6.38;;;5.13;;
6463;SDS011;3265;42.694;23.282;2022-07-29T08:15:56;7.03;;;5.40;;
6463;SDS011;3265;42.694;23.282;2022-07-29T08:18:25;8.70;;;5.38;;
6463;SDS011;3265;42.694;23.282;2022-07-29T08:20:53;7.90;;;5.22;;
6463;SDS011;3265;42.694;23.282;2022-07-29T08:23:20;9.25;;;5.60;;
6463;SDS011;3265;42.694;23.282;2022-07-29T08:25:47;14.02;;;6.50;;
6463;SDS011;3265;42.694;23.282;2022-07-29T08:28:15;34.95;;;7.75;;
6463;SDS011;3265;42.694;23.282;2022-07-29T08:30:42;8.13;;;5.38;;
6463;SDS011;3265;42.694;23.282;2022-07-29T08:33:10;7.53;;;5.43;;
6463;SDS011;3265;42.694;23.282;2022-07-29T08:35:38;5.55;;;4.82;;
6463;SDS011;3265;42.694;23.282;2022-07-29T08:38:05;7.13;;;5.40;;
6463;SDS011;3265;42.694;23.282;2022-07-29T08:40:32;8.18;;;5.32;;
6463;SDS011;3265;42.694;23.282;2022-07-29T08:42:59;7.03;;;4.95;;
6463;SDS011;3265;42.694;23.282;2022-07-29T08:45:34;12.02;;;5.00;;
6463;SDS011;3265;42.694;23.282;2022-07-29T08:48:10;7.38;;;4.70;;
6463;SDS011;3265;42.694;23.282;2022-07-29T08:50:38;5.65;;;4.78;;
6463;SDS011;3265;42.694;23.282;2022-07-29T08:53:07;6.72;;;4.90;;
6463;SDS011;3265;42.694;23.282;2022-07-29T08:55:38;7.07;;;5.10;;
6463;SDS011;3265;42.694;23.282;2022-07-29T08:58:06;6.25;;;4.88;;
6463;SDS011;3265;42.694;23.282;2022-07-29T09:00:33;9.75;;;4.70;;
6463;SDS011;3265;42.694;23.282;2022-07-29T09:03:02;5.32;;;4.70;;
6463;SDS011;3265;42.694;23.282;2022-07-29T09:05:32;6.55;;;4.88;;
6463;SDS011;3265;42.694;23.282;2022-07-29T09:08:00;6.20;;;4.45;;
6463;SDS011;3265;42.694;23.282;2022-07-29T09:10:28;5.82;;;4.53;;
6463;SDS011;3265;42.694;23.282;2022-07-29T09:12:55;8.15;;;4.63;;
6463;SDS011;3265;42.694;23.282;2022-07-29T09:15:22;5.88;;;4.63;;
6463;SDS011;3265;42.694;23.282;2022-07-29T09:17:49;6.55;;;4.50;;
6463;SDS011;3265;42.694;23.282;2022-07-29T09:20:16;6.18;;;4.60;;
6463;SDS011;3265;42.694;23.282;2022-07-29T09:22:46;4.80;;;4.30;;
6463;SDS011;3265;42.694;23.282;2022-07-29T09:25:14;6.75;;;4.72;;
6463;SDS011;3265;42.694;23.282;2022-07-29T09:28:04;6.13;;;4.38;;
6463;SDS011;3265;42.694;23.282;2022-07-29T09:30:32;4.97;;;4.15;;
6463;SDS011;3265;42.694;23.282;2022-07-29T09:33:01;7.50;;;4.80;;
6463;SDS011;3265;42.694;23.282;2022-07-29T09:35:30;6.38;;;4.80;;
6463;SDS011;3265;42.694;23.282;2022-07-29T09:37:58;6.53;;;4.70;;
6463;SDS011;3265;42.694;23.282;2022-07-29T09:40:36;5.10;;;4.60;;
6463;SDS011;3265;42.694;23.282;2022-07-29T09:43:09;5.90;;;4.63;;
6463;SDS011;3265;42.694;23.282;2022-07-29T09:45:37;6.40;;;4.70;;
6463;SDS011;3265;42.694;23.282;2022-07-29T09:48:12;9.13;;;4.45;;
6463;SDS011;3265;42.694;23.282;2022-07-29T09:50:40;5.82;;;4.50;;
6463;SDS011;3265;42.694;23.282;2022-07-29T09:53:11;5.13;;;4.65;;
6463;SDS011;3265;42.694;23.282;2022-07-29T09:55:48;5.53;;;4.50;;
6463;SDS011;3265;42.694;23.282;2022-07-29T09:58:16;7.05;;;4.60;;
6463;SDS011;3265;42.694;23.282;2022-07-29T10:00:44;8.10;;;4.85;;
6463;SDS011;3265;42.694;23.282;2022-07-29T10:03:11;5.25;;;4.60;;
6463;SDS011;3265;42.694;23.282;2022-07-29T10:05:38;6.65;;;4.72;;
6463;SDS011;3265;42.694;23.282;2022-07-29T10:08:07;5.03;;;4.57;;
6463;SDS011;3265;42.694;23.282;2022-07-29T10:10:37;5.40;;;4.90;;
6463;SDS011;3265;42.694;23.282;2022-07-29T10:13:05;6.68;;;4.60;;
6463;SDS011;3265;42.694;23.282;2022-07-29T10:15:34;5.18;;;4.68;;
6463;SDS011;3265;42.694;23.282;2022-07-29T10:18:04;6.13;;;4.60;;
6463;SDS011;3265;42.694;23.282;2022-07-29T10:20:32;6.53;;;5.07;;
6463;SDS011;3265;42.694;23.282;2022-07-29T10:23:00;5.03;;;4.53;;
6463;SDS011;3265;42.694;23.282;2022-07-29T10:25:27;8.70;;;5.40;;
6463;SDS011;3265;42.694;23.282;2022-07-29T10:27:56;7.38;;;5.00;;
6463;SDS011;3265;42.694;23.282;2022-07-29T10:30:25;5.63;;;5.05;;
6463;SDS011;3265;42.694;23.282;2022-07-29T10:33:06;7.55;;;5.20;;
6463;SDS011;3265;42.694;23.282;2022-07-29T10:35:54;8.23;;;5.15;;
6463;SDS011;3265;42.694;23.282;2022-07-29T10:44:16;5.68;;;4.60;;
6463;SDS011;3265;42.694;23.282;2022-07-29T10:46:45;5.13;;;4.63;;
6463;SDS011;3265;42.694;23.282;2022-07-29T10:49:14;5.57;;;4.40;;
6463;SDS011;3265;42.694;23.282;2022-07-29T10:51:52;6.30;;;4.90;;
6463;SDS011;3265;42.694;23.282;2022-07-29T10:54:47;5.70;;;4.93;;
6463;SDS011;3265;42.694;23.282;2022-07-29T10:57:19;8.20;;;4.90;;
6463;SDS011;3265;42.694;23.282;2022-07-29T11:02:58;7.45;;;4.93;;
6463;SDS011;3265;42.694;23.282;2022-07-29T11:05:26;5.03;;;4.50;;
6463;SDS011;3265;42.694;23.282;2022-07-29T11:10:45;8.65;;;5.15;;
6463;SDS011;3265;42.694;23.282;2022-07-29T11:13:12;5.50;;;5.00;;
6463;SDS011;3265;42.694;23.282;2022-07-29T11:15:56;6.88;;;5.28;;
6463;SDS011;3265;42.694;23.282;2022-07-29T11:18:23;4.88;;;4.03;;
6463;SDS011;3265;42.694;23.282;2022-07-29T11:20:51;5.60;;;4.72;;
6463;SDS011;3265;42.694;23.282;2022-07-29T11:23:20;6.25;;;4.78;;
6463;SDS011;3265;42.694;23.282;2022-07-29T11:28:47;6.43;;;4.07;;
6463;SDS011;3265;42.694;23.282;2022-07-29T11:31:19;5.68;;;4.35;;
6463;SDS011;3265;42.694;23.282;2022-07-29T11:33:57;4.80;;;4.30;;
6463;SDS011;3265;42.694;23.282;2022-07-29T11:39:44;4.95;;;4.53;;
6463;SDS011;3265;42.694;23.282;2022-07-29T11:45:12;6.57;;;4.40;;
6463;SDS011;3265;42.694;23.282;2022-07-29T11:47:46;5.75;;;4.65;;
6463;SDS011;3265;42.694;23.282;2022-07-29T11:50:16;5.93;;;4.50;;
6463;SDS011;3265;42.694;23.282;2022-07-29T11:52:52;4.93;;;4.40;;
6463;SDS011;3265;42.694;23.282;2022-07-29T11:55:20;8.35;;;4.40;;
6463;SDS011;3265;42.694;23.282;2022-07-29T11:57:48;8.90;;;5.13;;
6463;SDS011;3265;42.694;23.282;2022-07-29T12:00:24;6.85;;;4.97;;
6463;SDS011;3265;42.694;23.282;2022-07-29T12:02:56;5.85;;;5.15;;
6463;SDS011;3265;42.694;23.282;2022-07-29T12:05:34;8.60;;;5.05;;
6463;SDS011;3265;42.694;23.282;2022-07-29T12:08:04;7.25;;;4.85;;
6463;SDS011;3265;42.694;23.282;2022-07-29T12:10:41;9.40;;;4.90;;
6463;SDS011;3265;42.694;23.282;2022-07-29T12:13:08;6.05;;;4.55;;
6463;SDS011;3265;42.694;23.282;2022-07-29T12:15:36;6.00;;;4.35;;
6463;SDS011;3265;42.694;23.282;2022-07-29T12:18:15;5.82;;;5.20;;
6463;SDS011;3265;42.694;23.282;2022-07-29T12:20:45;6.03;;;4.90;;
6463;SDS011;3265;42.694;23.282;2022-07-29T12:23:13;5.22;;;4.30;;
6463;SDS011;3265;42.694;23.282;2022-07-29T12:25:41;5.07;;;4.20;;
6463;SDS011;3265;42.694;23.282;2022-07-29T12:28:10;6.55;;;4.80;;
6463;SDS011;3265;42.694;23.282;2022-07-29T12:30:39;8.15;;;4.70;;
6463;SDS011;3265;42.694;23.282;2022-07-29T12:33:20;5.15;;;4.65;;
6463;SDS011;3265;42.694;23.282;2022-07-29T12:35:49;5.05;;;4.65;;
6463;SDS011;3265;42.694;23.282;2022-07-29T12:38:18;11.13;;;5.00;;
6463;SDS011;3265;42.694;23.282;2022-07-29T12:40:46;6.18;;;4.93;;
6463;SDS011;3265;42.694;23.282;2022-07-29T12:43:14;6.53;;;5.50;;
6463;SDS011;3265;42.694;23.282;2022-07-29T12:45:42;6.60;;;5.13;;
6463;SDS011;3265;42.694;23.282;2022-07-29T12:48:10;7.40;;;5.07;;
6463;SDS011;3265;42.694;23.282;2022-07-29T12:50:52;5.63;;;4.85;;
6463;SDS011;3265;42.694;23.282;2022-07-29T12:53:21;8.75;;;5.45;;
6463;SDS011;3265;42.694;23.282;2022-07-29T12:55:48;7.50;;;5.43;;
6463;SDS011;3265;42.694;23.282;2022-07-29T12:58:30;7.05;;;5.78;;
6463;SDS011;3265;42.694;23.282;2022-07-29T13:01:02;7.60;;;5.70;;
6463;SDS011;3265;42.694;23.282;2022-07-29T13:06:36;5.75;;;5.25;;
6463;SDS011;3265;42.694;23.282;2022-07-29T13:09:08;9.80;;;5.72;;
6463;SDS011;3265;42.694;23.282;2022-07-29T13:11:37;7.18;;;5.60;;
6463;SDS011;3265;42.694;23.282;2022-07-29T13:14:06;11.98;;;5.70;;
6463;SDS011;3265;42.694;23.282;2022-07-29T13:16:35;7.57;;;5.30;;
6463;SDS011;3265;42.694;23.282;2022-07-29T13:19:03;6.15;;;5.55;;
6463;SDS011;3265;42.694;23.282;2022-07-29T13:21:36;7.13;;;5.80;;
6463;SDS011;3265;42.694;23.282;2022-07-29T13:24:04;5.60;;;5.07;;
6463;SDS011;3265;42.694;23.282;2022-07-29T13:26:32;6.07;;;5.38;;
6463;SDS011;3265;42.694;23.282;2022-07-29T13:28:59;9.38;;;5.53;;
6463;SDS011;3265;42.694;23.282;2022-07-29T13:31:26;6.75;;;5.57;;
6463;SDS011;3265;42.694;23.282;2022-07-29T13:33:53;8.38;;;5.30;;
6463;SDS011;3265;42.694;23.282;2022-07-29T13:36:19;8.20;;;5.38;;
6463;SDS011;3265;42.694;23.282;2022-07-29T13:38:47;7.75;;;5.65;;
6463;SDS011;3265;42.694;23.282;2022-07-29T13:41:14;7.35;;;5.50;;
6463;SDS011;3265;42.694;23.282;2022-07-29T13:43:41;5.95;;;5.25;;
6463;SDS011;3265;42.694;23.282;2022-07-29T13:46:08;8.05;;;5.20;;
6463;SDS011;3265;42.694;23.282;2022-07-29T13:48:35;7.22;;;5.40;;
6463;SDS011;3265;42.694;23.282;2022-07-29T13:51:02;9.32;;;5.65;;
6463;SDS011;3265;42.694;23.282;2022-07-29T13:53:28;8.02;;;6.50;;
6463;SDS011;3265;42.694;23.282;2022-07-29T13:55:57;8.68;;;5.10;;
6463;SDS011;3265;42.694;23.282;2022-07-29T13:58:23;8.35;;;5.20;;
6463;SDS011;3265;42.694;23.282;2022-07-29T14:00:50;7.05;;;5.82;;
6463;SDS011;3265;42.694;23.282;2022-07-29T14:03:18;7.03;;;5.57;;
6463;SDS011;3265;42.694;23.282;2022-07-29T14:05:45;8.55;;;6.00;;
6463;SDS011;3265;42.694;23.282;2022-07-29T14:08:12;7.55;;;5.15;;
6463;SDS011;3265;42.694;23.282;2022-07-29T14:10:38;6.25;;;5.03;;
6463;SDS011;3265;42.694;23.282;2022-07-29T14:13:07;9.52;;;5.43;;
6463;SDS011;3265;42.694;23.282;2022-07-29T14:15:33;5.60;;;5.10;;
6463;SDS011;3265;42.694;23.282;2022-07-29T14:18:00;10.23;;;5.60;;
6463;SDS011;3265;42.694;23.282;2022-07-29T14:20:28;7.00;;;5.65;;
6463;SDS011;3265;42.694;23.282;2022-07-29T14:22:55;5.50;;;5.00;;
6463;SDS011;3265;42.694;23.282;2022-07-29T14:25:22;8.15;;;4.90;;
6463;SDS011;3265;42.694;23.282;2022-07-29T14:27:49;7.05;;;5.28;;
6463;SDS011;3265;42.694;23.282;2022-07-29T14:30:19;7.82;;;5.30;;
6463;SDS011;3265;42.694;23.282;2022-07-29T14:32:47;7.53;;;5.43;;
6463;SDS011;3265;42.694;23.282;2022-07-29T14:35:13;5.60;;;5.00;;
6463;SDS011;3265;42.694;23.282;2022-07-29T14:37:40;8.77;;;5.50;;
6463;SDS011;3265;42.694;23.282;2022-07-29T14:40:08;6.13;;;5.53;;
6463;SDS011;3265;42.694;23.282;2022-07-29T14:42:35;6.47;;;5.38;;
6463;SDS011;3265;42.694;23.282;2022-07-29T14:45:03;5.95;;;5.35;;
6463;SDS011;3265;42.694;23.282;2022-07-29T14:47:32;7.70;;;5.18;;
6463;SDS011;3265;42.694;23.282;2022-07-29T14:49:59;7.28;;;4.85;;
6463;SDS011;3265;42.694;23.282;2022-07-29T14:52:26;6.07;;;5.30;;
6463;SDS011;3265;42.694;23.282;2022-07-29T14:54:53;7.72;;;5.30;;
6463;SDS011;3265;42.694;23.282;2022-07-29T14:57:19;8.48;;;5.32;;
6463;SDS011;3265;42.694;23.282;2022-07-29T14:59:46;5.95;;;5.38;;
6463;SDS011;3265;42.694;23.282;2022-07-29T15:02:13;6.47;;;5.10;;
6463;SDS011;3265;42.694;23.282;2022-07-29T15:04:41;6.63;;;5.30;;
6463;SDS011;3265;42.694;23.282;2022-07-29T15:07:09;6.18;;;5.10;;
6463;SDS011;3265;42.694;23.282;2022-07-29T15:09:36;7.22;;;5.40;;
6463;SDS011;3265;42.694;23.282;2022-07-29T15:12:03;7.35;;;6.00;;
6463;SDS011;3265;42.694;23.282;2022-07-29T15:14:30;6.00;;;5.40;;
6463;SDS011;3265;42.694;23.282;2022-07-29T15:16:57;6.35;;;5.47;;
6463;SDS011;3265;42.694;23.282;2022-07-29T15:19:24;7.07;;;5.47;;
6463;SDS011;3265;42.694;23.282;2022-07-29T15:21:52;8.40;;;5.85;;
6463;SDS011;3265;42.694;23.282;2022-07-29T15:24:19;6.38;;;5.30;;